createdAt,value
2023-04-18T00:01:56.175Z,4.47
2023-04-18T00:06:03.501Z,4.68
2023-04-18T00:10:10.852Z,5.13
2023-04-18T00:14:18.772Z,4.47
2023-04-18T00:18:26.699Z,4.68
2023-04-18T00:22:33.782Z,4.90
2023-04-18T00:26:40.450Z,4.22
2023-04-18T00:30:47.139Z,4.57
2023-04-18T00:34:53.809Z,5.07
2023-04-18T00:39:00.508Z,5.88
2023-04-18T00:43:12.619Z,4.50
2023-04-18T00:47:19.328Z,5.22
2023-04-18T00:51:26.277Z,4.43
2023-04-18T00:55:33.750Z,4.65
2023-04-18T00:59:41.181Z,4.60
2023-04-18T01:03:48.052Z,4.57
2023-04-18T01:07:58.740Z,5.05
2023-04-18T01:12:06.125Z,4.18
2023-04-18T01:16:13.167Z,4.40
2023-04-18T01:20:21.786Z,4.93
2023-04-18T01:24:29.808Z,4.18
2023-04-18T01:28:37.482Z,4.25
2023-04-18T01:32:44.878Z,4.65
2023-04-18T01:36:51.581Z,4.57
2023-04-18T01:40:58.257Z,4.65
2023-04-18T01:45:08.070Z,4.82
2023-04-18T01:49:14.784Z,4.32
2023-04-18T01:53:21.808Z,5.88
2023-04-18T01:57:28.886Z,4.15
2023-04-18T02:01:35.544Z,4.70
2023-04-18T02:05:42.225Z,5.63
2023-04-18T02:09:48.882Z,5.40
2023-04-18T02:13:55.680Z,5.43
2023-04-18T02:18:02.997Z,4.80
2023-04-18T02:22:09.728Z,5.03
2023-04-18T02:26:16.431Z,5.05
2023-04-18T02:30:24.428Z,5.40
2023-04-18T02:34:33.212Z,5.28
2023-04-18T02:38:39.870Z,4.85
2023-04-18T02:42:46.793Z,5.53
2023-04-18T02:46:53.481Z,4.93
2023-04-18T02:51:08.314Z,5.33
2023-04-18T02:55:15.113Z,5.53
2023-04-18T02:59:21.784Z,5.63
2023-04-18T03:03:28.467Z,6.10
2023-04-18T03:07:35.376Z,6.30
2023-04-18T03:11:42.161Z,4.70
2023-04-18T03:15:48.906Z,5.55
2023-04-18T03:19:55.771Z,5.97
2023-04-18T03:24:02.509Z,6.35
2023-04-18T03:28:09.274Z,5.60
2023-04-18T03:32:17.288Z,6.00
2023-04-18T03:36:25.408Z,5.67
2023-04-18T03:40:32.207Z,5.90
2023-04-18T03:44:38.849Z,5.28
2023-04-18T03:48:45.567Z,6.72
2023-04-18T03:52:55.456Z,6.23
2023-04-18T03:57:03.053Z,6.00
2023-04-18T04:01:09.708Z,6.63
2023-04-18T04:05:16.476Z,6.25
2023-04-18T04:09:23.105Z,7.10
2023-04-18T04:13:29.747Z,6.82
2023-04-18T04:17:36.482Z,6.57
2023-04-18T04:21:43.191Z,6.60
2023-04-18T04:25:49.906Z,5.95
2023-04-18T04:29:56.644Z,6.53
2023-04-18T04:34:04.957Z,7.43
2023-04-18T04:38:12.385Z,6.70
2023-04-18T04:42:19.765Z,6.07
2023-04-18T04:46:29.427Z,6.22
2023-04-18T04:50:37.508Z,7.05
2023-04-18T04:54:45.806Z,6.40
2023-04-18T04:58:53.693Z,7.25
2023-04-18T05:03:00.564Z,6.35
2023-04-18T05:07:07.490Z,6.70
2023-04-18T05:11:14.194Z,6.68
2023-04-18T05:15:20.958Z,7.38
2023-04-18T05:19:27.747Z,7.32
2023-04-18T05:23:37.437Z,6.40
2023-04-18T05:27:45.141Z,6.03
2023-04-18T05:31:51.790Z,6.15
2023-04-18T05:35:59.234Z,6.70
2023-04-18T05:40:06.857Z,6.63
2023-04-18T05:44:13.569Z,6.35
2023-04-18T05:48:21.354Z,5.85
2023-04-18T05:52:28.090Z,6.40
2023-04-18T05:56:34.758Z,6.32
2023-04-18T06:00:42.670Z,5.80
2023-04-18T06:04:49.887Z,5.63
2023-04-18T06:08:56.830Z,5.78
2023-04-18T06:13:03.530Z,5.15
2023-04-18T06:17:12.505Z,5.38
2023-04-18T06:21:20.343Z,5.47
2023-04-18T06:25:27.630Z,4.80
2023-04-18T06:29:36.005Z,5.25
2023-04-18T06:33:42.857Z,5.65
2023-04-18T06:37:49.644Z,5.15
2023-04-18T06:42:02.345Z,5.35
2023-04-18T06:46:09.247Z,4.85
2023-04-18T06:50:16.035Z,5.40
2023-04-18T06:54:22.757Z,4.50
2023-04-18T06:58:30.206Z,4.25
2023-04-18T07:02:40.432Z,4.55
2023-04-18T07:06:47.158Z,3.70
2023-04-18T07:10:53.801Z,4.20
2023-04-18T07:15:00.548Z,4.20
2023-04-18T07:19:07.540Z,4.32
2023-04-18T07:23:14.233Z,4.00
2023-04-18T07:27:21.087Z,3.90
2023-04-18T07:31:28.709Z,3.78
2023-04-18T07:35:36.201Z,3.70
2023-04-18T07:39:42.848Z,4.05
2023-04-18T07:43:49.512Z,3.92
2023-04-18T07:47:56.732Z,3.45
2023-04-18T07:52:04.035Z,3.65
2023-04-18T07:56:12.682Z,3.30
2023-04-18T08:00:19.680Z,3.15
2023-04-18T08:04:29.746Z,3.13
2023-04-18T08:08:36.984Z,3.17
2023-04-18T08:12:43.680Z,3.35
2023-04-18T08:16:53.263Z,3.40
2023-04-18T08:20:59.957Z,3.08
2023-04-18T08:25:07.041Z,3.25
2023-04-18T08:29:13.879Z,2.00
2023-04-18T08:33:23.077Z,2.88
2023-04-18T08:37:30.234Z,1.98
2023-04-18T08:41:37.911Z,3.20
2023-04-18T08:45:45.840Z,2.17
2023-04-18T08:49:53.631Z,2.10
2023-04-18T08:54:04.413Z,2.35
2023-04-18T08:58:12.453Z,2.35
2023-04-18T09:02:21.880Z,2.28
2023-04-18T09:06:30.378Z,2.40
2023-04-18T09:10:38.277Z,1.67
2023-04-18T09:14:47.108Z,2.42
2023-04-18T09:19:10.871Z,2.65
2023-04-18T09:23:24.520Z,2.80
2023-04-18T09:27:34.983Z,3.17
2023-04-18T09:31:57.249Z,2.33
2023-04-18T09:36:26.975Z,2.90
2023-04-18T09:40:34.235Z,2.38
2023-04-18T09:45:04.285Z,2.20
2023-04-18T09:49:11.337Z,2.88
2023-04-18T09:53:20.770Z,2.50
2023-04-18T09:57:30.562Z,2.60
2023-04-18T10:01:38.460Z,2.13
2023-04-18T10:05:47.463Z,2.67
2023-04-18T10:09:54.245Z,3.10
2023-04-18T10:14:11.862Z,2.70
2023-04-18T10:18:23.491Z,2.70
2023-04-18T10:22:30.770Z,3.23
2023-04-18T10:26:50.324Z,3.17
2023-04-18T10:31:04.289Z,3.50
2023-04-18T10:35:11.558Z,3.97
2023-04-18T10:39:23.274Z,4.20
2023-04-18T10:43:30.058Z,4.35
2023-04-18T10:47:36.840Z,4.22
2023-04-18T10:51:45.244Z,4.00
2023-04-18T10:55:55.151Z,3.55
2023-04-18T11:00:02.633Z,4.60
2023-04-18T11:04:13.924Z,4.88
2023-04-18T11:08:24.168Z,4.70
2023-04-18T11:12:32.616Z,5.15
2023-04-18T11:16:40.930Z,4.28
2023-04-18T11:20:51.564Z,4.78
2023-04-18T11:25:07.122Z,4.80
2023-04-18T11:29:13.921Z,4.82
2023-04-18T11:33:20.735Z,4.97
2023-04-18T11:37:27.519Z,4.72
2023-04-18T11:41:34.261Z,5.32
2023-04-18T11:45:57.642Z,4.45
2023-04-18T11:50:06.750Z,6.18
2023-04-18T11:54:49.028Z,5.95
2023-04-18T11:58:56.883Z,5.47
2023-04-18T12:03:05.594Z,6.47
2023-04-18T12:07:12.532Z,5.93
2023-04-18T12:11:22.293Z,7.22
2023-04-18T12:15:30.010Z,5.97
2023-04-18T12:19:37.233Z,6.18
2023-04-18T12:23:45.952Z,7.20
2023-04-18T12:28:01.374Z,7.40
2023-04-18T12:32:08.114Z,6.68
2023-04-18T12:36:15.139Z,7.18
2023-04-18T12:40:22.931Z,7.10
2023-04-18T12:44:29.791Z,7.22
2023-04-18T12:48:36.693Z,6.35
2023-04-18T12:52:45.028Z,7.47
2023-04-18T12:56:51.770Z,6.57
2023-04-18T13:00:59.044Z,6.85
2023-04-18T13:05:11.390Z,7.45
2023-04-18T13:09:18.070Z,7.53
2023-04-18T13:13:24.846Z,7.20
2023-04-18T13:17:31.586Z,6.85
2023-04-18T13:21:38.240Z,7.93
2023-04-18T13:25:45.076Z,6.25
2023-04-18T13:29:52.068Z,6.53
2023-04-18T13:33:59.169Z,6.10
2023-04-18T13:38:05.785Z,7.20
2023-04-18T13:42:15.443Z,6.47
2023-04-18T13:46:23.982Z,7.40
2023-04-18T13:50:30.734Z,6.80
2023-04-18T13:54:37.673Z,6.88
2023-04-18T13:58:44.364Z,6.28
2023-04-18T14:02:51.223Z,7.07
2023-04-18T14:06:58.034Z,5.80
2023-04-18T14:11:04.743Z,7.05
2023-04-18T14:15:11.657Z,7.25
2023-04-18T14:19:18.556Z,5.63
2023-04-18T14:23:25.938Z,5.75
2023-04-18T14:27:32.936Z,5.60
2023-04-18T14:31:39.759Z,6.22
2023-04-18T14:35:46.564Z,5.80
2023-04-18T14:39:53.597Z,5.18
2023-04-18T14:44:00.416Z,5.28
2023-04-18T14:48:08.802Z,5.43
2023-04-18T14:52:16.765Z,4.68
2023-04-18T14:56:24.218Z,5.00
2023-04-18T15:00:33.669Z,4.60
2023-04-18T15:04:40.446Z,5.03
2023-04-18T15:08:47.237Z,4.72
2023-04-18T15:12:53.894Z,5.45
2023-04-18T15:17:00.906Z,5.63
2023-04-18T15:21:07.985Z,5.45
2023-04-18T15:25:16.633Z,4.80
2023-04-18T15:29:23.356Z,4.50
2023-04-18T15:33:30.026Z,4.22
2023-04-18T15:37:37.234Z,4.38
2023-04-18T15:41:43.924Z,5.07
2023-04-18T15:45:51.191Z,5.22
2023-04-18T15:49:57.868Z,4.00
2023-04-18T15:54:04.571Z,4.18
2023-04-18T15:58:11.316Z,3.50
2023-04-18T16:02:18.136Z,5.45
2023-04-18T16:06:24.862Z,4.80
2023-04-18T16:10:31.566Z,4.20
2023-04-18T16:14:38.310Z,4.03
2023-04-18T16:18:45.130Z,4.40
2023-04-18T16:22:51.827Z,3.72
2023-04-18T16:26:58.514Z,3.92
2023-04-18T16:31:06.457Z,3.42
2023-04-18T16:35:13.208Z,4.13
2023-04-18T16:39:19.918Z,4.03
2023-04-18T16:43:27.020Z,4.63
2023-04-18T16:47:33.758Z,3.88
2023-04-18T16:51:40.501Z,4.35
2023-04-18T16:55:47.254Z,3.70
2023-04-18T16:59:53.948Z,3.80
2023-04-18T17:04:00.695Z,3.05
2023-04-18T17:08:07.550Z,3.40
2023-04-18T17:12:14.212Z,3.60
2023-04-18T17:16:21.101Z,3.97
2023-04-18T17:20:28.302Z,3.35
2023-04-18T17:24:35.499Z,3.75
2023-04-18T17:28:42.304Z,3.47
2023-04-18T17:32:49.134Z,2.42
2023-04-18T17:36:56.138Z,2.72
2023-04-18T17:41:04.648Z,3.97
2023-04-18T17:45:11.419Z,2.70
2023-04-18T17:49:18.190Z,2.33
2023-04-18T17:53:24.872Z,2.03
2023-04-18T17:57:33.534Z,2.40
2023-04-18T18:01:40.330Z,2.33
2023-04-18T18:05:49.014Z,2.50
2023-04-18T18:09:55.805Z,2.88
2023-04-18T18:14:02.464Z,2.42
2023-04-18T18:18:09.134Z,2.63
2023-04-18T18:22:16.240Z,2.50
2023-04-18T18:26:22.996Z,2.40
2023-04-18T18:30:29.864Z,2.75
2023-04-18T18:34:36.528Z,2.28
2023-04-18T18:38:43.327Z,2.63
2023-04-18T18:42:51.441Z,2.83
2023-04-18T18:46:59.640Z,2.83
2023-04-18T18:51:06.383Z,2.15
2023-04-18T18:55:13.130Z,2.83
2023-04-18T18:59:19.826Z,2.47
2023-04-18T19:03:26.785Z,2.83
2023-04-18T19:07:33.593Z,3.03
2023-04-18T19:11:40.283Z,3.22
2023-04-18T19:15:46.979Z,3.00
2023-04-18T19:19:57.733Z,2.90
2023-04-18T19:24:04.748Z,2.22
2023-04-18T19:28:12.805Z,3.35
2023-04-18T19:32:19.550Z,3.42
2023-04-18T19:36:26.646Z,3.75
2023-04-18T19:40:33.272Z,3.60
2023-04-18T19:44:40.019Z,3.60
2023-04-18T19:48:46.688Z,3.08
2023-04-18T19:52:53.376Z,3.83
2023-04-18T19:57:01.085Z,3.55
2023-04-18T20:01:09.903Z,3.33
2023-04-18T20:05:18.591Z,3.58
2023-04-18T20:09:25.501Z,3.40
2023-04-18T20:13:32.158Z,3.03
2023-04-18T20:17:38.917Z,3.90
2023-04-18T20:21:45.633Z,3.70
2023-04-18T20:25:52.520Z,4.32
2023-04-18T20:29:59.248Z,3.20
2023-04-18T20:34:06.589Z,3.47
2023-04-18T20:38:14.844Z,3.45
2023-04-18T20:42:21.586Z,3.65
2023-04-18T20:46:28.265Z,4.18
2023-04-18T20:50:34.931Z,3.63
2023-04-18T20:54:41.775Z,3.80
2023-04-18T20:58:48.457Z,3.58
2023-04-18T21:02:55.590Z,3.40
2023-04-18T21:07:02.363Z,3.08
2023-04-18T21:11:09.024Z,3.45
2023-04-18T21:15:15.737Z,3.70
2023-04-18T21:19:22.385Z,3.25
2023-04-18T21:23:29.067Z,3.50
2023-04-18T21:27:35.877Z,3.08
2023-04-18T21:31:42.602Z,4.05
2023-04-18T21:35:49.372Z,3.55
2023-04-18T21:39:56.044Z,3.90
2023-04-18T21:44:02.821Z,3.35
2023-04-18T21:48:10.068Z,3.47
2023-04-18T21:52:16.706Z,3.85
2023-04-18T21:56:23.413Z,3.80
2023-04-18T22:00:30.074Z,4.15
2023-04-18T22:04:38.075Z,3.83
2023-04-18T22:08:44.790Z,4.05
2023-04-18T22:12:54.012Z,3.67
2023-04-18T22:17:04.827Z,3.08
2023-04-18T22:21:11.702Z,3.70
2023-04-18T22:25:18.371Z,3.38
2023-04-18T22:29:25.138Z,3.85
2023-04-18T22:33:31.883Z,3.95
2023-04-18T22:37:38.587Z,3.72
2023-04-18T22:41:45.432Z,3.42
2023-04-18T22:45:52.216Z,4.85
2023-04-18T22:49:59.064Z,4.30
2023-04-18T22:54:05.808Z,4.53
2023-04-18T22:58:13.435Z,3.80
2023-04-18T23:02:20.248Z,4.60
2023-04-18T23:06:28.299Z,4.20
2023-04-18T23:10:35.128Z,4.85
2023-04-18T23:14:41.932Z,4.32
2023-04-18T23:18:48.702Z,4.15
2023-04-18T23:22:55.991Z,4.75
2023-04-18T23:27:02.885Z,4.50
2023-04-18T23:31:10.031Z,5.15
2023-04-18T23:35:17.081Z,4.88
2023-04-18T23:39:26.386Z,4.55
2023-04-18T23:43:33.996Z,4.57
2023-04-18T23:47:40.693Z,4.90
2023-04-18T23:51:47.363Z,4.50
2023-04-18T23:55:54.118Z,4.80
